Time;durP1;ratioP1;P1;durP2;ratioP2;P2;SDS_P1;SDS_P2;PMS_P1;PMS_P2;Temp;Humidity;BMP_temperature;BMP_pressure;BME280_temperature;BME280_humidity;BME280_pressure;Samples;Min_cycle;Max_cycle;Signal;HPM_P1;HPM_P2
2022/03/01 00:01:56;;;;;;;7.13;5.05;;;8.70;95.70;;;;;;4971990;28;20042;-60
2022/03/01 00:04:26;;;;;;;6.22;4.63;;;8.60;95.80;;;;;;4971968;28;20089;-60
2022/03/01 00:06:54;;;;;;;8.43;4.03;;;8.50;95.70;;;;;;4970609;28;20035;-60
2022/03/01 00:09:22;;;;;;;8.55;5.35;;;8.50;95.80;;;;;;4973135;28;20042;-60
2022/03/01 00:11:49;;;;;;;6.47;3.90;;;8.50;95.80;;;;;;4971759;28;20039;-60
2022/03/01 00:14:17;;;;;;;7.80;4.43;;;8.50;95.80;;;;;;4971230;28;20417;-60
2022/03/01 00:16:45;;;;;;;6.18;4.30;;;8.50;95.80;;;;;;4971980;28;20137;-59
2022/03/01 00:19:12;;;;;;;7.28;4.45;;;8.50;95.80;;;;;;4971949;28;20078;-60
2022/03/01 00:21:40;;;;;;;5.60;3.78;;;8.50;95.80;;;;;;4972106;28;20039;-59
2022/03/01 00:24:08;;;;;;;8.88;5.20;;;8.50;95.70;;;;;;4972220;28;20039;-59
2022/03/01 00:26:35;;;;;;;6.15;5.28;;;8.40;95.60;;;;;;4974716;28;20375;-59
2022/03/01 00:29:03;;;;;;;6.82;4.82;;;8.40;95.50;;;;;;4959029;28;20078;-60
2022/03/01 00:31:31;;;;;;;7.05;4.55;;;8.40;95.50;;;;;;4974993;28;20142;-60
2022/03/01 00:33:58;;;;;;;7.90;4.78;;;8.40;95.50;;;;;;4974620;28;20051;-60
2022/03/01 00:36:26;;;;;;;7.05;4.05;;;8.40;95.30;;;;;;4976506;28;20054;-60
2022/03/01 00:38:54;;;;;;;9.93;5.10;;;8.40;95.40;;;;;;4974839;28;20529;-60
2022/03/01 00:41:21;;;;;;;6.13;4.10;;;8.40;95.30;;;;;;4975300;28;20070;-60
2022/03/01 00:43:49;;;;;;;7.70;4.72;;;8.40;95.30;;;;;;4965385;28;20047;-60
2022/03/01 00:46:18;;;;;;;8.55;5.20;;;8.30;95.20;;;;;;4975168;28;20085;-60
2022/03/01 00:48:45;;;;;;;7.07;5.25;;;8.30;95.20;;;;;;4974730;28;20047;-60
2022/03/01 00:51:13;;;;;;;8.13;6.05;;;8.30;95.30;;;;;;4976419;28;20462;-60
2022/03/01 00:53:40;;;;;;;11.10;5.22;;;8.30;95.30;;;;;;4975455;28;20073;-60
2022/03/01 00:56:08;;;;;;;10.10;4.80;;;8.20;95.30;;;;;;4967372;28;20039;-60
2022/03/01 00:58:36;;;;;;;11.32;5.00;;;8.10;95.40;;;;;;4974853;28;20430;-60
2022/03/01 01:01:04;;;;;;;9.05;5.28;;;8.10;95.30;;;;;;4971712;28;20408;-60
2022/03/01 01:03:31;;;;;;;11.20;5.15;;;8.10;95.30;;;;;;4972336;28;20042;-60
2022/03/01 01:05:59;;;;;;;6.47;4.53;;;8.10;95.40;;;;;;4974525;28;20074;-60
2022/03/01 01:08:26;;;;;;;7.05;4.80;;;8.00;95.50;;;;;;4958057;28;20051;-60
2022/03/01 01:10:57;;;;;;;7.80;4.20;;;7.90;95.30;;;;;;4974621;28;20385;-60
2022/03/01 01:13:24;;;;;;;9.73;4.93;;;7.90;95.50;;;;;;4974385;28;20058;-60
2022/03/01 01:15:52;;;;;;;11.23;5.15;;;8.00;95.50;;;;;;4974304;28;20125;-60
2022/03/01 01:18:19;;;;;;;8.35;5.28;;;7.90;95.40;;;;;;4975223;28;20574;-60
2022/03/01 01:20:47;;;;;;;10.10;4.50;;;7.90;95.40;;;;;;4974473;28;20133;-60
2022/03/01 01:23:14;;;;;;;6.60;5.07;;;7.90;95.40;;;;;;4974068;28;20042;-60
2022/03/01 01:25:42;;;;;;;6.60;4.85;;;7.80;95.40;;;;;;4974404;28;20504;-60
2022/03/01 01:28:11;;;;;;;7.55;4.53;;;7.70;95.70;;;;;;4973346;28;20039;-60
2022/03/01 01:30:41;;;;;;;8.30;4.45;;;7.70;95.60;;;;;;4975059;28;20051;-60
2022/03/01 01:33:08;;;;;;;10.15;4.70;;;7.60;95.60;;;;;;4975441;28;20046;-59
2022/03/01 01:35:36;;;;;;;5.28;4.18;;;7.60;95.70;;;;;;4973824;28;20045;-60
2022/03/01 01:38:04;;;;;;;7.90;4.15;;;7.60;95.70;;;;;;4973627;28;20042;-60
2022/03/01 01:40:33;;;;;;;8.82;4.68;;;7.60;95.80;;;;;;4975426;28;20097;-60
2022/03/01 01:43:02;;;;;;;7.80;4.22;;;7.60;95.80;;;;;;4975191;28;20074;-60
2022/03/01 01:45:30;;;;;;;8.30;4.68;;;7.60;95.70;;;;;;4975028;28;20055;-60
2022/03/01 01:47:59;;;;;;;7.43;4.00;;;7.60;95.70;;;;;;4975225;28;20053;-59
2022/03/01 01:50:29;;;;;;;12.32;5.13;;;7.60;95.70;;;;;;4975253;28;20054;-59
2022/03/01 01:52:57;;;;;;;7.32;4.10;;;7.60;95.50;;;;;;4943836;28;20061;-59
2022/03/01 01:55:26;;;;;;;6.45;4.05;;;7.50;95.50;;;;;;4976591;28;20397;-59
2022/03/01 01:57:56;;;;;;;7.82;4.13;;;7.40;95.60;;;;;;4976586;28;20046;-59
2022/03/01 02:00:23;;;;;;;8.55;5.13;;;7.50;95.50;;;;;;4974574;28;20074;-59
2022/03/01 02:02:51;;;;;;;6.97;3.92;;;7.40;95.50;;;;;;4976137;28;20135;-60
2022/03/01 02:05:19;;;;;;;9.48;4.22;;;7.50;95.40;;;;;;4975205;28;20090;-60
2022/03/01 02:07:49;;;;;;;7.57;3.85;;;7.40;95.30;;;;;;4976237;28;20390;-60
2022/03/01 02:10:18;;;;;;;7.90;3.97;;;7.40;95.40;;;;;;4976561;28;20129;-60
2022/03/01 02:12:45;;;;;;;4.75;3.45;;;7.30;95.40;;;;;;4976309;28;20090;-60
2022/03/01 02:15:15;;;;;;;6.40;4.13;;;7.30;95.30;;;;;;4974611;28;20046;-59
2022/03/01 02:17:43;;;;;;;6.43;3.53;;;7.20;95.40;;;;;;4974914;28;20050;-60
2022/03/01 02:20:21;;;;;;;7.35;3.25;;;7.20;95.50;;;;;;4974721;28;20054;-60
2022/03/01 02:22:56;;;;;;;8.45;4.40;;;7.10;95.70;;;;;;4975030;28;20051;-60
2022/03/01 02:25:24;;;;;;;6.28;4.55;;;7.10;95.90;;;;;;4976293;28;20401;-60
2022/03/01 02:27:52;;;;;;;6.07;4.07;;;7.00;95.80;;;;;;4975087;28;20106;-60
2022/03/01 02:30:20;;;;;;;8.77;4.28;;;7.10;95.90;;;;;;4975659;28;20046;-60
2022/03/01 02:32:48;;;;;;;6.70;4.60;;;7.10;96.00;;;;;;4975493;28;20039;-60
2022/03/01 02:35:16;;;;;;;5.43;3.58;;;7.10;95.70;;;;;;4974925;28;20074;-60
2022/03/01 02:37:44;;;;;;;7.30;4.38;;;7.10;95.60;;;;;;4958523;28;20545;-59
2022/03/01 02:40:12;;;;;;;5.78;4.20;;;7.20;95.80;;;;;;4974451;28;20047;-60
2022/03/01 02:42:42;;;;;;;8.45;5.32;;;7.10;95.40;;;;;;4974513;28;20047;-60
2022/03/01 02:45:12;;;;;;;7.88;5.53;;;7.10;95.60;;;;;;4975465;28;20073;-60
2022/03/01 02:47:40;;;;;;;5.13;3.55;;;7.10;95.50;;;;;;4973928;28;20043;-60
2022/03/01 02:50:09;;;;;;;5.15;3.33;;;7.00;95.50;;;;;;4973964;28;20039;-60
2022/03/01 02:52:40;;;;;;;6.13;3.78;;;7.10;95.40;;;;;;4974853;28;20592;-60
2022/03/01 02:55:09;;;;;;;8.77;4.88;;;7.00;95.50;;;;;;4974679;28;20054;-60
2022/03/01 02:57:39;;;;;;;9.43;4.78;;;7.00;95.50;;;;;;4975546;28;20054;-60
2022/03/01 03:00:07;;;;;;;6.80;3.83;;;7.00;95.50;;;;;;4974404;28;20051;-60
2022/03/01 03:02:35;;;;;;;8.95;3.80;;;7.00;95.30;;;;;;4973525;28;20478;-60
2022/03/01 03:05:04;;;;;;;6.57;3.38;;;6.90;95.40;;;;;;4973545;28;20073;-60
2022/03/01 03:07:32;;;;;;;7.22;3.53;;;6.90;95.40;;;;;;4975053;28;20038;-59
2022/03/01 03:09:59;;;;;;;6.68;3.40;;;6.90;95.50;;;;;;4975164;28;20043;-60
2022/03/01 03:12:27;;;;;;;7.45;4.75;;;6.80;95.40;;;;;;4974097;28;20404;-60
2022/03/01 03:14:55;;;;;;;8.63;5.28;;;6.80;95.40;;;;;;4974115;28;20106;-60
2022/03/01 03:17:25;;;;;;;6.38;3.80;;;6.80;95.20;;;;;;4974739;28;20125;-59
2022/03/01 03:19:52;;;;;;;6.05;4.32;;;6.80;95.20;;;;;;4974421;28;20051;-59
2022/03/01 03:22:20;;;;;;;7.18;3.70;;;6.70;95.10;;;;;;4974824;28;20485;-60
2022/03/01 03:24:47;;;;;;;6.95;3.58;;;6.70;94.90;;;;;;4973929;28;20089;-60
2022/03/01 03:27:15;;;;;;;6.32;3.60;;;6.70;95.00;;;;;;4973832;28;20042;-60
2022/03/01 03:29:43;;;;;;;5.93;3.60;;;6.70;94.90;;;;;;4958046;28;20145;-60
2022/03/01 03:32:10;;;;;;;5.85;3.30;;;6.70;95.10;;;;;;4974827;28;20049;-60
2022/03/01 03:34:38;;;;;;;7.22;3.63;;;6.70;94.80;;;;;;4956861;28;20041;-59
2022/03/01 03:37:06;;;;;;;5.57;3.67;;;6.60;94.70;;;;;;4975055;28;20049;-60
2022/03/01 03:39:33;;;;;;;8.77;4.07;;;6.60;94.40;;;;;;4974537;28;20130;-60
2022/03/01 03:42:01;;;;;;;7.38;3.58;;;6.70;94.40;;;;;;4974780;28;20071;-60
2022/03/01 03:44:28;;;;;;;6.65;3.00;;;6.60;94.20;;;;;;4973503;28;20082;-60
2022/03/01 03:46:56;;;;;;;7.43;3.50;;;6.60;94.20;;;;;;4973703;28;20071;-60
2022/03/01 03:49:24;;;;;;;5.63;3.53;;;6.60;94.00;;;;;;4972906;28;20407;-60
2022/03/01 03:51:55;;;;;;;7.43;4.03;;;6.60;93.90;;;;;;4974111;28;20414;-60
2022/03/01 03:54:22;;;;;;;7.05;4.85;;;6.60;93.90;;;;;;4973326;28;20490;-59
2022/03/01 03:56:50;;;;;;;6.60;3.75;;;6.60;93.80;;;;;;4974566;28;20446;-59
2022/03/01 03:59:17;;;;;;;5.20;3.47;;;6.70;93.50;;;;;;4974301;28;20043;-60
2022/03/01 04:01:45;;;;;;;6.75;3.80;;;6.60;93.40;;;;;;4974480;28;20043;-59
2022/03/01 04:04:13;;;;;;;6.82;3.80;;;6.60;93.50;;;;;;4974329;28;20043;-59
2022/03/01 04:06:40;;;;;;;6.45;4.15;;;6.60;93.50;;;;;;4974144;28;20098;-59
2022/03/01 04:09:08;;;;;;;6.90;4.00;;;6.50;93.40;;;;;;4973007;28;20051;-60
2022/03/01 04:11:35;;;;;;;5.80;3.63;;;6.50;93.30;;;;;;4973300;28;20146;-60
2022/03/01 04:14:03;;;;;;;5.00;2.97;;;6.50;93.50;;;;;;4974404;28;20043;-60
2022/03/01 04:16:30;;;;;;;6.22;4.18;;;6.40;93.30;;;;;;4974380;28;20046;-60
2022/03/01 04:18:58;;;;;;;7.80;3.45;;;6.40;93.20;;;;;;4973182;28;20133;-60
2022/03/01 04:21:26;;;;;;;5.95;3.72;;;6.40;93.10;;;;;;4973361;28;20089;-60
2022/03/01 04:23:53;;;;;;;6.13;3.63;;;6.40;92.90;;;;;;4973011;28;20082;-60
2022/03/01 04:26:23;;;;;;;6.85;4.13;;;6.40;92.70;;;;;;4974109;28;20125;-59
2022/03/01 04:28:50;;;;;;;5.75;4.03;;;6.30;92.90;;;;;;4973223;28;20154;-59
2022/03/01 04:31:18;;;;;;;5.72;3.72;;;6.30;92.80;;;;;;4973120;28;20070;-60
2022/03/01 04:33:45;;;;;;;8.00;3.45;;;6.30;92.90;;;;;;4974436;28;20065;-60
2022/03/01 04:36:14;;;;;;;8.27;3.72;;;6.30;92.90;;;;;;4956351;28;20046;-59
2022/03/01 04:38:41;;;;;;;4.85;3.70;;;6.10;92.80;;;;;;4972743;28;20073;-60
2022/03/01 04:41:09;;;;;;;6.57;4.00;;;6.10;93.10;;;;;;4973894;28;20043;-60
2022/03/01 04:43:37;;;;;;;6.88;4.45;;;6.00;93.10;;;;;;4973960;28;20397;-60
2022/03/01 04:46:05;;;;;;;6.55;3.78;;;6.10;93.20;;;;;;4974144;28;20051;-59
2022/03/01 04:48:33;;;;;;;7.63;3.38;;;6.10;93.20;;;;;;4972979;28;20050;-59
2022/03/01 04:51:00;;;;;;;6.50;4.80;;;6.10;93.30;;;;;;4972765;28;20482;-60
2022/03/01 04:53:28;;;;;;;5.18;3.60;;;6.10;93.40;;;;;;4972226;28;20097;-59
2022/03/01 04:55:55;;;;;;;7.97;3.35;;;6.10;93.40;;;;;;4973813;28;20050;-59
2022/03/01 04:58:23;;;;;;;8.02;4.07;;;6.10;93.30;;;;;;4988928;28;20105;-59
2022/03/01 05:00:52;;;;;;;5.82;3.25;;;6.10;93.40;;;;;;4973006;28;20047;-59
2022/03/01 05:03:20;;;;;;;8.40;3.42;;;6.10;93.40;;;;;;4973905;28;20039;-60
2022/03/01 05:05:48;;;;;;;6.15;3.78;;;6.10;93.40;;;;;;4972885;28;20486;-60
2022/03/01 05:08:15;;;;;;;6.40;3.85;;;6.10;93.50;;;;;;4973023;28;20118;-59
2022/03/01 05:10:43;;;;;;;7.63;3.35;;;6.20;93.50;;;;;;4972952;28;20137;-60
2022/03/01 05:13:11;;;;;;;5.57;3.45;;;6.20;93.60;;;;;;4976203;28;20065;-60
2022/03/01 05:15:38;;;;;;;4.50;3.15;;;6.10;93.50;;;;;;4977442;28;20498;-60
2022/03/01 05:18:06;;;;;;;4.80;3.53;;;6.10;93.80;;;;;;4976360;28;20090;-60
2022/03/01 05:20:34;;;;;;;5.68;3.42;;;6.00;94.00;;;;;;4977090;28;20047;-60
2022/03/01 05:23:02;;;;;;;6.10;3.58;;;6.10;94.10;;;;;;4976629;28;20396;-60
2022/03/01 05:25:29;;;;;;;7.40;3.70;;;6.10;94.20;;;;;;4976540;28;20061;-60
2022/03/01 05:27:57;;;;;;;4.82;3.13;;;6.20;94.30;;;;;;4977239;28;20137;-60
2022/03/01 05:30:25;;;;;;;6.88;3.70;;;6.10;94.30;;;;;;4975786;28;20426;-60
2022/03/01 05:32:54;;;;;;;6.18;3.22;;;6.10;94.40;;;;;;4977075;28;20363;-60
2022/03/01 05:35:25;;;;;;;6.07;2.97;;;6.10;94.50;;;;;;4976985;28;20070;-60
2022/03/01 05:37:54;;;;;;;5.07;2.95;;;6.20;94.50;;;;;;4975572;28;20035;-60
2022/03/01 05:40:24;;;;;;;4.38;2.75;;;6.20;94.60;;;;;;4976087;28;20063;-60
2022/03/01 05:42:52;;;;;;;16.30;4.18;;;6.20;94.60;;;;;;4975959;28;20464;-60
2022/03/01 05:45:21;;;;;;;6.18;2.67;;;6.30;94.70;;;;;;4975468;28;20508;-60
2022/03/01 05:47:48;;;;;;;6.78;3.00;;;6.20;94.70;;;;;;4976947;28;20051;-60
2022/03/01 05:50:16;;;;;;;4.65;3.10;;;6.30;94.80;;;;;;4959769;28;20121;-60
2022/03/01 05:52:45;;;;;;;5.90;3.03;;;6.30;94.80;;;;;;4976722;28;20125;-60
2022/03/01 05:55:14;;;;;;;12.23;3.97;;;6.30;94.90;;;;;;4975993;28;20050;-60
2022/03/01 05:57:41;;;;;;;5.45;2.92;;;6.30;95.00;;;;;;4974635;28;20050;-60
2022/03/01 06:00:16;;;;;;;4.38;2.67;;;6.30;95.10;;;;;;4975363;28;20046;-60
2022/03/01 06:02:45;;;;;;;5.97;3.30;;;6.30;95.20;;;;;;4975324;28;20105;-60
2022/03/01 06:05:14;;;;;;;5.43;2.55;;;6.50;95.30;;;;;;4975359;28;20513;-60
2022/03/01 06:07:43;;;;;;;6.93;3.40;;;6.70;95.10;;;;;;4975361;28;20382;-60
2022/03/01 06:10:11;;;;;;;5.72;3.08;;;7.00;95.10;;;;;;4975761;28;20065;-60
2022/03/01 06:12:39;;;;;;;6.65;2.50;;;7.40;94.90;;;;;;4975954;28;20050;-60
2022/03/01 06:15:08;;;;;;;4.15;2.85;;;7.70;94.50;;;;;;4975435;28;20046;-60
2022/03/01 06:17:37;;;;;;;5.18;2.80;;;8.10;93.90;;;;;;4976164;28;20490;-60
2022/03/01 06:20:09;;;;;;;4.82;2.78;;;8.30;93.50;;;;;;4974828;28;20046;-60
2022/03/01 06:22:37;;;;;;;5.30;2.92;;;8.40;93.30;;;;;;4976652;28;20057;-60
2022/03/01 06:25:06;;;;;;;4.70;2.78;;;8.30;93.30;;;;;;4975937;28;20477;-59
2022/03/01 06:27:39;;;;;;;3.95;2.42;;;8.30;93.70;;;;;;4958642;28;20043;-59
2022/03/01 06:30:08;;;;;;;5.95;2.67;;;8.20;93.80;;;;;;4974537;28;20161;-59
2022/03/01 06:32:35;;;;;;;7.68;2.42;;;8.10;93.70;;;;;;4974564;28;20435;-59
2022/03/01 06:35:05;;;;;;;4.22;2.67;;;8.00;94.00;;;;;;4975070;28;20150;-59
2022/03/01 06:37:38;;;;;;;4.97;2.58;;;8.20;94.10;;;;;;4975933;28;20133;-59
2022/03/01 06:40:06;;;;;;;5.95;3.35;;;8.40;93.70;;;;;;4975847;28;20134;-60
2022/03/01 06:42:34;;;;;;;5.40;2.80;;;8.60;93.40;;;;;;4973844;28;20057;-60
2022/03/01 06:45:03;;;;;;;4.93;2.92;;;8.50;93.10;;;;;;4985966;28;20420;-59
2022/03/01 06:47:31;;;;;;;4.82;2.60;;;8.50;93.30;;;;;;4978143;28;20358;-59
2022/03/01 06:50:00;;;;;;;4.22;2.65;;;8.50;93.20;;;;;;4975586;28;20051;-60
2022/03/01 06:52:29;;;;;;;6.40;3.08;;;8.60;93.50;;;;;;4975617;28;20481;-59
2022/03/01 06:54:56;;;;;;;4.18;2.20;;;9.00;93.20;;;;;;4975616;28;20130;-59
2022/03/01 06:57:24;;;;;;;3.70;2.63;;;9.00;92.90;;;;;;4974891;28;20441;-59
2022/03/01 06:59:53;;;;;;;7.93;3.35;;;8.80;93.00;;;;;;4974053;28;20371;-59
2022/03/01 07:02:22;;;;;;;5.22;3.38;;;8.70;93.40;;;;;;4974313;28;20058;-60
2022/03/01 07:04:50;;;;;;;3.83;2.47;;;8.60;93.80;;;;;;4958324;28;20050;-60
2022/03/01 07:07:17;;;;;;;4.68;2.20;;;8.50;94.00;;;;;;4974147;28;20050;-60
2022/03/01 07:09:45;;;;;;;3.88;2.35;;;8.60;94.50;;;;;;4975162;28;20098;-60
2022/03/01 07:12:12;;;;;;;3.80;2.05;;;8.60;94.50;;;;;;4974965;28;20047;-60
2022/03/01 07:14:40;;;;;;;3.28;1.95;;;8.50;94.60;;;;;;4974457;28;20043;-60
2022/03/01 07:17:07;;;;;;;2.10;1.52;;;8.40;94.70;;;;;;4974154;28;20381;-59
2022/03/01 07:19:35;;;;;;;4.05;2.33;;;8.10;94.80;;;;;;4974787;28;20046;-59
2022/03/01 07:22:03;;;;;;;3.80;2.13;;;7.90;95.50;;;;;;4975150;28;20129;-59
2022/03/01 07:24:30;;;;;;;4.47;2.42;;;7.80;95.80;;;;;;4973800;28;20049;-59
2022/03/01 07:26:58;;;;;;;4.93;3.00;;;7.70;96.10;;;;;;4974956;28;20130;-60
2022/03/01 07:29:27;;;;;;;6.78;2.90;;;7.60;96.30;;;;;;4972540;28;20458;-60
2022/03/01 07:31:54;;;;;;;4.15;3.00;;;7.50;96.70;;;;;;4973544;28;20047;-59
2022/03/01 07:34:25;;;;;;;3.42;2.08;;;7.50;96.60;;;;;;4957590;28;20198;-60
2022/03/01 07:36:53;;;;;;;3.55;2.30;;;7.50;96.80;;;;;;4974832;28;20047;-60
2022/03/01 07:39:20;;;;;;;3.97;2.10;;;7.50;96.70;;;;;;4974949;28;20047;-60
2022/03/01 07:41:49;;;;;;;3.97;2.33;;;7.60;96.70;;;;;;4973507;28;20586;-59
2022/03/01 07:44:19;;;;;;;3.30;2.25;;;7.50;96.70;;;;;;4973189;28;20453;-59
2022/03/01 07:46:51;;;;;;;3.28;2.10;;;7.50;96.90;;;;;;4973513;28;20441;-59
2022/03/01 07:49:19;;;;;;;3.15;1.85;;;7.50;96.80;;;;;;4974495;28;20043;-59
2022/03/01 07:51:46;;;;;;;2.80;1.70;;;7.50;96.80;;;;;;4974634;28;20494;-59
2022/03/01 07:54:14;;;;;;;3.10;1.88;;;7.50;97.20;;;;;;4974620;28;20043;-59
2022/03/01 07:56:42;;;;;;;2.67;1.80;;;7.50;97.10;;;;;;4974520;28;20520;-59
2022/03/01 07:59:10;;;;;;;4.05;2.50;;;7.40;97.20;;;;;;4973143;28;20414;-59
2022/03/01 08:01:38;;;;;;;6.35;2.83;;;7.40;97.30;;;;;;4973826;28;20039;-59
2022/03/01 08:04:07;;;;;;;4.63;2.13;;;7.50;97.30;;;;;;4974402;28;20046;-59
2022/03/01 08:06:34;;;;;;;4.18;2.65;;;7.40;97.20;;;;;;4973164;28;20047;-59
2022/03/01 08:09:04;;;;;;;3.88;2.78;;;7.40;97.10;;;;;;4974434;28;20045;-59
2022/03/01 08:11:32;;;;;;;3.95;2.35;;;7.40;97.20;;;;;;4974595;28;20043;-59
2022/03/01 08:14:00;;;;;;;3.10;2.20;;;7.40;97.40;;;;;;4973462;28;20129;-59
2022/03/01 08:16:27;;;;;;;5.55;2.50;;;7.50;97.40;;;;;;4972411;28;20061;-59
2022/03/01 08:18:55;;;;;;;3.80;2.50;;;7.60;97.40;;;;;;4974137;28;20043;-59
2022/03/01 08:21:23;;;;;;;3.97;2.50;;;7.60;97.50;;;;;;4972849;28;20102;-59
2022/03/01 08:23:52;;;;;;;3.30;2.50;;;7.60;97.80;;;;;;4974339;28;20047;-59
2022/03/01 08:26:20;;;;;;;3.13;2.38;;;7.70;98.00;;;;;;4974560;28;20058;-59
2022/03/01 08:28:49;;;;;;;5.53;3.00;;;7.70;98.00;;;;;;4974595;28;20071;-59
2022/03/01 08:31:17;;;;;;;4.40;3.08;;;7.70;97.90;;;;;;4972299;28;20126;-59
2022/03/01 08:33:46;;;;;;;3.95;2.50;;;7.50;98.20;;;;;;4973780;28;20050;-59
2022/03/01 08:36:17;;;;;;;5.72;2.97;;;7.50;98.50;;;;;;4972914;28;20046;-59
2022/03/01 08:38:44;;;;;;;4.22;2.80;;;7.60;98.70;;;;;;4973154;28;20046;-59
2022/03/01 08:41:12;;;;;;;3.55;2.60;;;7.50;98.70;;;;;;4973090;28;20078;-58
2022/03/01 08:43:39;;;;;;;5.30;2.72;;;7.60;98.90;;;;;;4973135;28;20051;-59
2022/03/01 08:46:14;;;;;;;5.53;3.42;;;7.60;98.80;;;;;;4973583;28;20055;-58
2022/03/01 08:48:44;;;;;;;5.15;2.42;;;7.60;99.10;;;;;;4975940;28;20051;-58
2022/03/01 08:51:13;;;;;;;6.13;2.97;;;7.70;99.00;;;;;;4977783;28;20129;-59
2022/03/01 08:53:40;;;;;;;4.60;3.00;;;7.70;99.10;;;;;;4977802;28;20109;-59
2022/03/01 08:56:09;;;;;;;4.78;2.35;;;7.80;98.90;;;;;;4978172;28;20145;-59
2022/03/01 08:58:37;;;;;;;4.63;2.50;;;7.90;98.90;;;;;;4976544;28;20128;-59
2022/03/01 09:01:04;;;;;;;5.40;3.17;;;7.90;98.80;;;;;;4976256;28;20070;-58
2022/03/01 09:03:33;;;;;;;3.72;2.80;;;8.00;98.90;;;;;;4975368;28;20062;-59
2022/03/01 09:06:10;;;;;;;3.63;2.70;;;8.10;98.90;;;;;;4976748;28;20137;-59
2022/03/01 09:08:40;;;;;;;4.25;2.85;;;8.20;98.90;;;;;;4976213;28;20047;-58
2022/03/01 09:11:09;;;;;;;3.05;2.47;;;8.30;98.90;;;;;;4977577;28;20122;-59
2022/03/01 09:13:38;;;;;;;7.80;4.65;;;8.30;98.90;;;;;;4977459;28;20042;-59
2022/03/01 09:16:07;;;;;;;9.18;4.13;;;8.30;98.90;;;;;;4976320;28;20066;-60
2022/03/01 09:18:36;;;;;;;6.85;4.00;;;8.20;99.20;;;;;;4976374;28;20039;-60
2022/03/01 09:21:05;;;;;;;5.70;3.08;;;8.20;99.70;;;;;;4975515;28;20054;-59
2022/03/01 09:23:35;;;;;;;4.07;2.28;;;8.20;99.80;;;;;;4976022;28;20069;-60
2022/03/01 09:26:03;;;;;;;3.28;2.00;;;8.30;99.90;;;;;;4960127;28;20047;-60
2022/03/01 09:28:31;;;;;;;6.65;3.13;;;8.40;99.90;;;;;;4976004;28;20046;-59
2022/03/01 09:30:58;;;;;;;6.50;3.60;;;8.60;99.90;;;;;;4976388;28;20473;-60
2022/03/01 09:33:26;;;;;;;5.10;3.08;;;8.90;99.90;;;;;;4975471;28;20082;-60
2022/03/01 09:35:54;;;;;;;5.90;3.60;;;9.10;99.90;;;;;;4976491;28;20405;-60
2022/03/01 09:38:24;;;;;;;6.60;3.20;;;9.40;99.90;;;;;;4975765;28;20145;-60
2022/03/01 09:40:52;;;;;;;8.95;5.18;;;9.70;99.40;;;;;;4975881;28;20516;-60
2022/03/01 09:43:20;;;;;;;8.25;5.60;;;10.10;99.00;;;;;;4976816;28;20198;-60
2022/03/01 09:45:48;;;;;;;6.22;3.70;;;10.50;98.40;;;;;;4975388;28;20073;-60
2022/03/01 09:48:18;;;;;;;9.27;3.63;;;10.90;98.00;;;;;;4976884;28;20039;-60
2022/03/01 09:50:47;;;;;;;5.38;3.50;;;11.20;97.60;;;;;;4976537;28;20468;-60
2022/03/01 09:53:15;;;;;;;5.10;2.83;;;11.30;96.70;;;;;;4975653;28;20070;-60
2022/03/01 09:55:43;;;;;;;5.60;3.30;;;11.30;95.90;;;;;;4975291;28;20054;-60
2022/03/01 09:58:12;;;;;;;6.45;3.20;;;11.20;95.80;;;;;;4976540;28;20904;-61
2022/03/01 10:00:40;;;;;;;4.95;3.83;;;11.30;96.10;;;;;;4976715;28;20047;-60
2022/03/01 10:03:08;;;;;;;5.10;3.42;;;11.30;96.40;;;;;;4976470;28;20046;-60
2022/03/01 10:05:40;;;;;;;5.28;3.25;;;11.50;96.70;;;;;;4975631;28;20043;-60
2022/03/01 10:08:14;;;;;;;6.10;3.60;;;11.50;96.80;;;;;;4976157;28;20202;-60
2022/03/01 10:10:47;;;;;;;6.53;3.92;;;11.40;97.20;;;;;;4974948;28;20046;-60
2022/03/01 10:13:20;;;;;;;10.23;6.35;;;11.10;97.50;;;;;;4976550;28;20054;-60
2022/03/01 10:16:10;;;;;;;18.30;11.15;;;10.80;98.10;;;;;;4976364;28;20050;-60
2022/03/01 10:19:00;;;;;;;15.77;8.48;;;10.50;98.80;;;;;;4975175;28;20533;-60
2022/03/01 10:21:27;;;;;;;10.60;5.50;;;10.30;99.30;;;;;;4974270;28;20046;-60
2022/03/01 10:23:59;;;;;;;6.05;3.50;;;10.00;99.60;;;;;;4974654;28;20167;-60
2022/03/01 10:26:31;;;;;;;5.40;3.67;;;9.80;99.80;;;;;;4974854;28;20509;-60
2022/03/01 10:29:00;;;;;;;7.78;3.60;;;9.70;99.90;;;;;;4976192;28;20105;-60
2022/03/01 10:31:31;;;;;;;5.97;3.30;;;9.70;99.90;;;;;;4975261;28;20050;-60
2022/03/01 10:34:05;;;;;;;4.95;3.13;;;9.60;99.90;;;;;;4975438;28;20098;-60
2022/03/01 10:36:44;;;;;;;7.22;4.30;;;9.50;99.90;;;;;;4974266;28;20060;-60
2022/03/01 10:39:14;;;;;;;6.60;3.85;;;9.50;99.90;;;;;;4975673;28;20143;-60
2022/03/01 10:41:46;;;;;;;4.28;3.10;;;9.50;99.90;;;;;;4974540;28;20042;-60
2022/03/01 10:44:16;;;;;;;4.45;3.13;;;9.50;99.90;;;;;;4974511;28;20039;-59
2022/03/01 10:46:52;;;;;;;6.05;2.85;;;9.50;99.90;;;;;;4959126;28;20057;-59
2022/03/01 10:49:25;;;;;;;6.15;3.50;;;9.60;99.90;;;;;;4975900;28;20501;-59
2022/03/01 10:51:55;;;;;;;3.55;2.40;;;9.90;99.90;;;;;;4975031;28;20105;-59
2022/03/01 10:54:36;;;;;;;4.38;2.65;;;10.20;99.90;;;;;;4973667;28;20429;-59
2022/03/01 10:57:11;;;;;;;5.05;2.55;;;10.50;99.90;;;;;;4975369;28;20053;-59
2022/03/01 10:59:40;;;;;;;4.43;2.92;;;10.90;99.90;;;;;;4974234;28;20478;-59
2022/03/01 11:02:08;;;;;;;4.80;3.25;;;11.40;99.90;;;;;;4974478;28;20047;-59
2022/03/01 11:04:36;;;;;;;4.72;2.72;;;11.70;99.90;;;;;;4958362;28;20094;-60
2022/03/01 11:07:05;;;;;;;3.20;2.08;;;11.90;99.60;;;;;;4973725;28;20098;-60
2022/03/01 11:09:34;;;;;;;3.15;1.90;;;12.00;98.80;;;;;;4974098;28;20047;-60
2022/03/01 11:12:04;;;;;;;5.63;2.72;;;11.90;98.00;;;;;;4973893;28;20050;-60
2022/03/01 11:14:35;;;;;;;7.28;4.65;;;11.80;97.70;;;;;;4974046;28;20039;-60
2022/03/01 11:17:36;;;;;;;31.55;17.13;;;11.80;97.80;;;;;;4975256;28;20039;-60
2022/03/01 11:20:04;;;;;;;8.00;4.03;;;11.70;98.20;;;;;;4974302;28;20065;-59
2022/03/01 11:23:04;;;;;;;4.18;2.38;;;11.70;97.80;;;;;;4974866;28;20082;-59
2022/03/01 11:25:41;;;;;;;3.38;2.08;;;11.80;97.60;;;;;;4973257;28;20055;-60
2022/03/01 11:28:10;;;;;;;3.08;1.90;;;11.70;96.80;;;;;;4957713;28;20397;-60
2022/03/01 11:30:45;;;;;;;3.78;2.40;;;11.80;97.10;;;;;;4974067;28;20513;-59
2022/03/01 11:33:24;;;;;;;4.40;2.28;;;11.70;96.60;;;;;;4975186;28;20046;-59
2022/03/01 11:35:53;;;;;;;3.55;2.10;;;11.70;96.50;;;;;;4973840;28;20402;-59
2022/03/01 11:38:28;;;;;;;4.65;2.90;;;11.50;96.30;;;;;;4970781;28;20066;-60
2022/03/01 11:41:15;;;;;;;8.07;4.38;;;11.20;96.30;;;;;;4970889;28;20050;-60
2022/03/01 11:43:42;;;;;;;5.00;2.70;;;11.10;96.50;;;;;;4970805;28;20050;-60
2022/03/01 11:46:17;;;;;;;3.50;2.70;;;11.00;97.10;;;;;;4971819;28;20410;-59
2022/03/01 11:48:49;;;;;;;3.72;1.98;;;10.90;97.10;;;;;;4972085;28;20094;-60
2022/03/01 11:51:34;;;;;;;5.03;2.67;;;10.90;96.80;;;;;;4971790;28;20518;-59
2022/03/01 11:54:08;;;;;;;9.27;4.70;;;10.90;96.50;;;;;;4961804;28;20054;-59
2022/03/01 11:56:37;;;;;;;4.68;3.25;;;10.90;96.50;;;;;;4971077;28;20450;-60
2022/03/01 11:59:10;;;;;;;3.08;2.03;;;10.80;96.60;;;;;;4972941;28;20138;-59
2022/03/01 12:01:39;;;;;;;1.75;1.30;;;10.80;96.30;;;;;;4955794;28;20043;-60
2022/03/01 12:04:08;;;;;;;2.20;1.77;;;10.80;96.30;;;;;;4954204;28;20395;-60
2022/03/01 12:06:41;;;;;;;3.72;2.00;;;10.80;96.10;;;;;;4954504;29;20063;-59
2022/03/01 12:09:10;;;;;;;3.28;1.88;;;10.80;95.70;;;;;;4954226;29;20071;-59
2022/03/01 12:11:44;;;;;;;3.55;1.98;;;10.80;95.80;;;;;;4953064;29;20051;-59
2022/03/01 12:14:15;;;;;;;12.82;2.22;;;10.60;95.90;;;;;;4954872;28;20089;-59
2022/03/01 12:16:43;;;;;;;3.15;1.80;;;10.50;96.30;;;;;;4953624;29;20051;-60
2022/03/01 12:19:17;;;;;;;7.05;1.92;;;10.30;96.40;;;;;;4953772;29;20065;-59
2022/03/01 12:21:57;;;;;;;3.95;2.08;;;10.30;96.80;;;;;;4959114;28;20497;-59
2022/03/01 12:24:28;;;;;;;3.10;1.85;;;10.30;97.50;;;;;;4959178;28;20053;-59
2022/03/01 12:27:01;;;;;;;2.60;2.03;;;10.20;97.90;;;;;;4957065;29;20039;-59
2022/03/01 12:29:36;;;;;;;2.83;2.10;;;10.20;98.30;;;;;;4958692;29;20062;-59
2022/03/01 12:32:10;;;;;;;3.38;2.30;;;10.20;98.80;;;;;;4957651;29;20051;-60
2022/03/01 12:34:40;;;;;;;3.28;2.22;;;10.20;98.70;;;;;;4957578;29;20418;-59
2022/03/01 12:37:10;;;;;;;3.03;2.22;;;10.20;98.60;;;;;;4957511;28;20043;-59
2022/03/01 12:39:39;;;;;;;4.40;2.17;;;10.30;98.60;;;;;;4941697;29;20142;-59
2022/03/01 12:42:08;;;;;;;4.05;2.97;;;10.30;98.50;;;;;;4957886;29;20058;-59
2022/03/01 12:44:36;;;;;;;5.82;2.80;;;10.40;98.50;;;;;;4957166;29;20044;-59
2022/03/01 12:47:08;;;;;;;4.45;2.70;;;10.60;98.50;;;;;;4957273;29;20086;-59
2022/03/01 12:49:37;;;;;;;4.43;2.28;;;10.70;98.20;;;;;;4957412;29;20036;-59
2022/03/01 12:52:05;;;;;;;4.15;2.70;;;10.80;98.10;;;;;;4957307;29;20482;-59
2022/03/01 12:54:34;;;;;;;10.20;2.92;;;10.90;98.00;;;;;;4941798;29;20166;-60
2022/03/01 12:57:06;;;;;;;3.50;2.22;;;10.90;97.50;;;;;;4957747;28;20401;-59
2022/03/01 12:59:34;;;;;;;5.57;2.45;;;10.90;97.00;;;;;;4956570;29;20058;-59
2022/03/01 13:02:07;;;;;;;2.30;1.88;;;10.80;96.60;;;;;;4956909;29;20043;-59
2022/03/01 13:04:37;;;;;;;3.78;2.17;;;10.80;96.80;;;;;;4941119;29;20046;-59
2022/03/01 13:07:05;;;;;;;3.95;2.78;;;10.80;96.50;;;;;;4957281;28;20043;-59